sensor_id;sensor_type;location;lat;lon;timestamp;P1;durP1;ratioP1;P2;durP2;ratioP2
1048;SDS011;513;51.444;7.196;2023-07-31T00:00:49;16.92;;;5.60;;
1048;SDS011;513;51.444;7.196;2023-07-31T00:03:16;11.70;;;5.57;;
1048;SDS011;513;51.444;7.196;2023-07-31T00:05:43;16.70;;;5.80;;
1048;SDS011;513;51.444;7.196;2023-07-31T00:08:10;15.18;;;6.15;;
1048;SDS011;513;51.444;7.196;2023-07-31T00:10:37;13.82;;;5.78;;
1048;SDS011;513;51.444;7.196;2023-07-31T00:13:04;14.97;;;5.80;;
1048;SDS011;513;51.444;7.196;2023-07-31T00:15:32;14.38;;;6.07;;
1048;SDS011;513;51.444;7.196;2023-07-31T00:17:59;17.08;;;6.28;;
1048;SDS011;513;51.444;7.196;2023-07-31T00:20:27;11.50;;;5.50;;
1048;SDS011;513;51.444;7.196;2023-07-31T00:22:54;15.02;;;6.47;;
1048;SDS011;513;51.444;7.196;2023-07-31T00:25:21;10.52;;;5.82;;
1048;SDS011;513;51.444;7.196;2023-07-31T00:27:48;14.40;;;5.45;;
1048;SDS011;513;51.444;7.196;2023-07-31T00:30:15;14.38;;;5.63;;
1048;SDS011;513;51.444;7.196;2023-07-31T00:32:44;12.68;;;5.90;;
1048;SDS011;513;51.444;7.196;2023-07-31T00:35:11;14.52;;;6.40;;
1048;SDS011;513;51.444;7.196;2023-07-31T00:37:38;14.98;;;5.90;;
1048;SDS011;513;51.444;7.196;2023-07-31T00:40:05;17.08;;;6.20;;
1048;SDS011;513;51.444;7.196;2023-07-31T00:42:32;14.88;;;5.80;;
1048;SDS011;513;51.444;7.196;2023-07-31T00:44:59;15.98;;;6.60;;
1048;SDS011;513;51.444;7.196;2023-07-31T00:47:26;16.55;;;6.57;;
1048;SDS011;513;51.444;7.196;2023-07-31T00:49:55;17.75;;;6.22;;
1048;SDS011;513;51.444;7.196;2023-07-31T00:52:22;14.70;;;6.05;;
1048;SDS011;513;51.444;7.196;2023-07-31T00:54:49;16.30;;;6.68;;
1048;SDS011;513;51.444;7.196;2023-07-31T00:57:16;17.77;;;6.60;;
1048;SDS011;513;51.444;7.196;2023-07-31T00:59:44;15.13;;;6.37;;
1048;SDS011;513;51.444;7.196;2023-07-31T01:02:11;17.40;;;6.63;;
1048;SDS011;513;51.444;7.196;2023-07-31T01:04:38;14.80;;;5.88;;
1048;SDS011;513;51.444;7.196;2023-07-31T01:07:09;14.97;;;5.87;;
1048;SDS011;513;51.444;7.196;2023-07-31T01:09:40;18.73;;;6.30;;
1048;SDS011;513;51.444;7.196;2023-07-31T01:12:09;19.75;;;6.22;;
1048;SDS011;513;51.444;7.196;2023-07-31T01:14:39;15.07;;;6.15;;
1048;SDS011;513;51.444;7.196;2023-07-31T01:17:06;14.82;;;5.75;;
1048;SDS011;513;51.444;7.196;2023-07-31T01:19:33;15.93;;;6.00;;
1048;SDS011;513;51.444;7.196;2023-07-31T01:22:11;16.63;;;6.35;;
1048;SDS011;513;51.444;7.196;2023-07-31T01:24:42;18.90;;;5.80;;
1048;SDS011;513;51.444;7.196;2023-07-31T01:27:17;16.55;;;5.95;;
1048;SDS011;513;51.444;7.196;2023-07-31T01:29:49;16.10;;;6.28;;
1048;SDS011;513;51.444;7.196;2023-07-31T01:32:18;14.02;;;5.38;;
1048;SDS011;513;51.444;7.196;2023-07-31T01:34:46;15.55;;;5.65;;
1048;SDS011;513;51.444;7.196;2023-07-31T01:37:13;15.48;;;5.50;;
1048;SDS011;513;51.444;7.196;2023-07-31T01:39:40;12.50;;;5.13;;
1048;SDS011;513;51.444;7.196;2023-07-31T01:42:07;11.35;;;5.05;;
1048;SDS011;513;51.444;7.196;2023-07-31T01:44:35;12.73;;;5.18;;
1048;SDS011;513;51.444;7.196;2023-07-31T01:47:02;15.63;;;5.40;;
1048;SDS011;513;51.444;7.196;2023-07-31T01:49:29;10.75;;;4.95;;
1048;SDS011;513;51.444;7.196;2023-07-31T01:51:56;11.73;;;4.60;;
1048;SDS011;513;51.444;7.196;2023-07-31T01:54:23;14.23;;;5.22;;
1048;SDS011;513;51.444;7.196;2023-07-31T01:56:50;13.38;;;5.32;;
1048;SDS011;513;51.444;7.196;2023-07-31T01:59:17;14.87;;;5.30;;
1048;SDS011;513;51.444;7.196;2023-07-31T02:01:46;14.10;;;5.18;;
1048;SDS011;513;51.444;7.196;2023-07-31T02:04:13;12.48;;;5.13;;
1048;SDS011;513;51.444;7.196;2023-07-31T02:06:40;14.55;;;4.93;;
1048;SDS011;513;51.444;7.196;2023-07-31T02:09:07;15.47;;;5.00;;
1048;SDS011;513;51.444;7.196;2023-07-31T02:11:34;13.13;;;5.35;;
1048;SDS011;513;51.444;7.196;2023-07-31T02:14:01;14.20;;;5.30;;
1048;SDS011;513;51.444;7.196;2023-07-31T02:16:28;16.40;;;5.20;;
1048;SDS011;513;51.444;7.196;2023-07-31T02:18:56;14.80;;;5.20;;
1048;SDS011;513;51.444;7.196;2023-07-31T02:21:23;12.10;;;5.15;;
1048;SDS011;513;51.444;7.196;2023-07-31T02:23:50;11.73;;;4.78;;
1048;SDS011;513;51.444;7.196;2023-07-31T02:26:17;11.73;;;5.33;;
1048;SDS011;513;51.444;7.196;2023-07-31T02:28:44;13.40;;;5.20;;
1048;SDS011;513;51.444;7.196;2023-07-31T02:31:11;12.48;;;5.22;;
1048;SDS011;513;51.444;7.196;2023-07-31T02:33:38;12.77;;;5.72;;
1048;SDS011;513;51.444;7.196;2023-07-31T02:36:06;12.82;;;4.75;;
1048;SDS011;513;51.444;7.196;2023-07-31T02:38:33;14.55;;;5.10;;
1048;SDS011;513;51.444;7.196;2023-07-31T02:41:00;15.63;;;5.00;;
1048;SDS011;513;51.444;7.196;2023-07-31T02:43:27;15.50;;;4.95;;
1048;SDS011;513;51.444;7.196;2023-07-31T02:45:54;14.30;;;5.68;;
1048;SDS011;513;51.444;7.196;2023-07-31T02:48:21;13.52;;;5.15;;
1048;SDS011;513;51.444;7.196;2023-07-31T02:50:48;10.65;;;4.88;;
1048;SDS011;513;51.444;7.196;2023-07-31T02:53:16;15.13;;;5.15;;
1048;SDS011;513;51.444;7.196;2023-07-31T02:55:43;16.05;;;4.80;;
1048;SDS011;513;51.444;7.196;2023-07-31T02:58:10;14.15;;;5.03;;
1048;SDS011;513;51.444;7.196;2023-07-31T03:00:41;15.38;;;5.22;;
1048;SDS011;513;51.444;7.196;2023-07-31T03:03:08;14.10;;;4.90;;
1048;SDS011;513;51.444;7.196;2023-07-31T03:05:35;11.35;;;4.80;;
1048;SDS011;513;51.444;7.196;2023-07-31T03:08:02;16.90;;;5.40;;
1048;SDS011;513;51.444;7.196;2023-07-31T03:10:31;12.48;;;5.13;;
1048;SDS011;513;51.444;7.196;2023-07-31T03:12:58;12.30;;;4.75;;
1048;SDS011;513;51.444;7.196;2023-07-31T03:15:25;17.20;;;5.22;;
1048;SDS011;513;51.444;7.196;2023-07-31T03:17:52;14.13;;;5.05;;
1048;SDS011;513;51.444;7.196;2023-07-31T03:20:19;14.57;;;5.27;;
1048;SDS011;513;51.444;7.196;2023-07-31T03:22:46;17.92;;;5.43;;
1048;SDS011;513;51.444;7.196;2023-07-31T03:25:13;13.52;;;5.53;;
1048;SDS011;513;51.444;7.196;2023-07-31T03:27:41;13.80;;;5.45;;
1048;SDS011;513;51.444;7.196;2023-07-31T03:30:08;10.40;;;4.63;;
1048;SDS011;513;51.444;7.196;2023-07-31T03:32:35;14.25;;;4.95;;
1048;SDS011;513;51.444;7.196;2023-07-31T03:35:03;13.80;;;5.30;;
1048;SDS011;513;51.444;7.196;2023-07-31T03:37:30;11.88;;;5.03;;
1048;SDS011;513;51.444;7.196;2023-07-31T03:39:57;11.60;;;4.70;;
1048;SDS011;513;51.444;7.196;2023-07-31T03:42:24;12.00;;;4.90;;
1048;SDS011;513;51.444;7.196;2023-07-31T03:44:52;11.68;;;4.85;;
1048;SDS011;513;51.444;7.196;2023-07-31T03:47:19;12.70;;;5.43;;
1048;SDS011;513;51.444;7.196;2023-07-31T03:49:46;11.93;;;5.13;;
1048;SDS011;513;51.444;7.196;2023-07-31T03:52:13;12.63;;;4.88;;
1048;SDS011;513;51.444;7.196;2023-07-31T03:54:40;10.52;;;4.80;;
1048;SDS011;513;51.444;7.196;2023-07-31T03:57:09;10.93;;;4.65;;
1048;SDS011;513;51.444;7.196;2023-07-31T03:59:36;11.13;;;5.00;;
1048;SDS011;513;51.444;7.196;2023-07-31T04:02:05;11.98;;;4.85;;
1048;SDS011;513;51.444;7.196;2023-07-31T04:04:32;13.93;;;4.95;;
1048;SDS011;513;51.444;7.196;2023-07-31T04:06:59;11.80;;;4.50;;
1048;SDS011;513;51.444;7.196;2023-07-31T04:09:26;14.98;;;5.00;;
1048;SDS011;513;51.444;7.196;2023-07-31T04:11:53;13.55;;;5.13;;
1048;SDS011;513;51.444;7.196;2023-07-31T04:14:20;13.05;;;5.28;;
1048;SDS011;513;51.444;7.196;2023-07-31T04:16:47;12.13;;;5.45;;
1048;SDS011;513;51.444;7.196;2023-07-31T04:19:15;10.33;;;4.77;;
1048;SDS011;513;51.444;7.196;2023-07-31T04:21:42;14.30;;;5.70;;
1048;SDS011;513;51.444;7.196;2023-07-31T04:24:09;13.52;;;4.95;;
1048;SDS011;513;51.444;7.196;2023-07-31T04:26:36;13.57;;;5.05;;
1048;SDS011;513;51.444;7.196;2023-07-31T04:29:03;12.30;;;4.75;;
1048;SDS011;513;51.444;7.196;2023-07-31T04:31:30;13.93;;;5.20;;
1048;SDS011;513;51.444;7.196;2023-07-31T04:33:57;11.70;;;5.50;;
1048;SDS011;513;51.444;7.196;2023-07-31T04:36:26;11.52;;;5.22;;
1048;SDS011;513;51.444;7.196;2023-07-31T04:38:53;10.20;;;4.72;;
1048;SDS011;513;51.444;7.196;2023-07-31T04:41:20;12.40;;;4.85;;
1048;SDS011;513;51.444;7.196;2023-07-31T04:43:47;12.68;;;5.25;;
1048;SDS011;513;51.444;7.196;2023-07-31T04:46:14;13.83;;;5.13;;
1048;SDS011;513;51.444;7.196;2023-07-31T04:48:42;10.93;;;4.72;;
1048;SDS011;513;51.444;7.196;2023-07-31T04:51:09;12.45;;;5.38;;
1048;SDS011;513;51.444;7.196;2023-07-31T04:53:37;12.35;;;5.10;;
1048;SDS011;513;51.444;7.196;2023-07-31T04:56:04;9.88;;;5.03;;
1048;SDS011;513;51.444;7.196;2023-07-31T04:58:31;12.52;;;6.03;;
1048;SDS011;513;51.444;7.196;2023-07-31T05:00:58;12.93;;;5.47;;
1048;SDS011;513;51.444;7.196;2023-07-31T05:03:25;12.52;;;5.90;;
1048;SDS011;513;51.444;7.196;2023-07-31T05:05:52;15.63;;;5.65;;
1048;SDS011;513;51.444;7.196;2023-07-31T05:08:19;11.85;;;5.40;;
1048;SDS011;513;51.444;7.196;2023-07-31T05:10:47;14.60;;;5.47;;
1048;SDS011;513;51.444;7.196;2023-07-31T05:13:14;13.82;;;5.30;;
1048;SDS011;513;51.444;7.196;2023-07-31T05:15:41;13.82;;;5.50;;
1048;SDS011;513;51.444;7.196;2023-07-31T05:18:08;13.80;;;5.35;;
1048;SDS011;513;51.444;7.196;2023-07-31T05:20:35;11.55;;;5.35;;
1048;SDS011;513;51.444;7.196;2023-07-31T05:23:02;13.30;;;5.63;;
1048;SDS011;513;51.444;7.196;2023-07-31T05:25:29;11.52;;;5.30;;
1048;SDS011;513;51.444;7.196;2023-07-31T05:27:58;13.50;;;5.57;;
1048;SDS011;513;51.444;7.196;2023-07-31T05:30:25;11.18;;;5.50;;
1048;SDS011;513;51.444;7.196;2023-07-31T05:32:52;10.98;;;5.50;;
1048;SDS011;513;51.444;7.196;2023-07-31T05:35:19;11.40;;;5.15;;
1048;SDS011;513;51.444;7.196;2023-07-31T05:37:46;14.68;;;5.65;;
1048;SDS011;513;51.444;7.196;2023-07-31T05:40:13;15.30;;;5.88;;
1048;SDS011;513;51.444;7.196;2023-07-31T05:42:40;10.50;;;5.47;;
1048;SDS011;513;51.444;7.196;2023-07-31T05:45:09;14.18;;;5.82;;
1048;SDS011;513;51.444;7.196;2023-07-31T05:47:37;13.05;;;6.10;;
1048;SDS011;513;51.444;7.196;2023-07-31T05:50:05;12.48;;;5.80;;
1048;SDS011;513;51.444;7.196;2023-07-31T05:52:32;10.95;;;6.38;;
1048;SDS011;513;51.444;7.196;2023-07-31T05:54:59;11.38;;;6.38;;
1048;SDS011;513;51.444;7.196;2023-07-31T05:57:26;11.43;;;5.90;;
1048;SDS011;513;51.444;7.196;2023-07-31T05:59:53;14.50;;;6.43;;
1048;SDS011;513;51.444;7.196;2023-07-31T06:02:21;13.23;;;6.20;;
1048;SDS011;513;51.444;7.196;2023-07-31T06:04:48;12.88;;;6.15;;
1048;SDS011;513;51.444;7.196;2023-07-31T06:07:15;12.80;;;6.60;;
1048;SDS011;513;51.444;7.196;2023-07-31T06:09:42;11.52;;;6.65;;
1048;SDS011;513;51.444;7.196;2023-07-31T06:12:09;14.98;;;6.90;;
1048;SDS011;513;51.444;7.196;2023-07-31T06:14:36;13.43;;;6.20;;
1048;SDS011;513;51.444;7.196;2023-07-31T06:17:04;11.80;;;5.97;;
1048;SDS011;513;51.444;7.196;2023-07-31T06:19:32;16.85;;;6.53;;
1048;SDS011;513;51.444;7.196;2023-07-31T06:21:59;11.60;;;5.82;;
1048;SDS011;513;51.444;7.196;2023-07-31T06:24:27;12.75;;;6.10;;
1048;SDS011;513;51.444;7.196;2023-07-31T06:26:54;14.95;;;6.70;;
1048;SDS011;513;51.444;7.196;2023-07-31T06:29:22;12.82;;;6.45;;
1048;SDS011;513;51.444;7.196;2023-07-31T06:31:49;13.68;;;6.30;;
1048;SDS011;513;51.444;7.196;2023-07-31T06:34:16;13.10;;;6.55;;
1048;SDS011;513;51.444;7.196;2023-07-31T06:36:45;10.82;;;6.47;;
1048;SDS011;513;51.444;7.196;2023-07-31T06:39:12;10.80;;;6.22;;
1048;SDS011;513;51.444;7.196;2023-07-31T06:41:39;13.20;;;6.25;;
1048;SDS011;513;51.444;7.196;2023-07-31T06:44:06;12.57;;;6.93;;
1048;SDS011;513;51.444;7.196;2023-07-31T06:46:33;11.00;;;6.07;;
1048;SDS011;513;51.444;7.196;2023-07-31T06:49:00;12.45;;;6.60;;
1048;SDS011;513;51.444;7.196;2023-07-31T06:51:27;13.88;;;6.30;;
1048;SDS011;513;51.444;7.196;2023-07-31T06:53:57;12.73;;;6.53;;
1048;SDS011;513;51.444;7.196;2023-07-31T06:56:24;12.13;;;6.10;;
1048;SDS011;513;51.444;7.196;2023-07-31T06:58:52;10.98;;;6.28;;
1048;SDS011;513;51.444;7.196;2023-07-31T07:01:19;9.98;;;5.68;;
1048;SDS011;513;51.444;7.196;2023-07-31T07:03:46;9.13;;;5.70;;
1048;SDS011;513;51.444;7.196;2023-07-31T07:06:15;9.43;;;5.53;;
1048;SDS011;513;51.444;7.196;2023-07-31T07:08:42;11.43;;;5.72;;
1048;SDS011;513;51.444;7.196;2023-07-31T07:11:11;11.32;;;5.68;;
1048;SDS011;513;51.444;7.196;2023-07-31T07:13:38;12.93;;;5.75;;
1048;SDS011;513;51.444;7.196;2023-07-31T07:16:05;10.40;;;5.32;;
1048;SDS011;513;51.444;7.196;2023-07-31T07:18:32;10.40;;;5.35;;
1048;SDS011;513;51.444;7.196;2023-07-31T07:20:59;8.37;;;5.47;;
1048;SDS011;513;51.444;7.196;2023-07-31T07:23:27;10.60;;;6.05;;
1048;SDS011;513;51.444;7.196;2023-07-31T07:25:54;9.47;;;5.43;;
1048;SDS011;513;51.444;7.196;2023-07-31T07:28:22;8.90;;;5.57;;
1048;SDS011;513;51.444;7.196;2023-07-31T07:30:50;10.18;;;5.90;;
1048;SDS011;513;51.444;7.196;2023-07-31T07:33:18;10.82;;;5.93;;
1048;SDS011;513;51.444;7.196;2023-07-31T07:35:45;9.80;;;5.32;;
1048;SDS011;513;51.444;7.196;2023-07-31T07:38:13;11.30;;;5.60;;
1048;SDS011;513;51.444;7.196;2023-07-31T07:40:40;10.10;;;5.47;;
1048;SDS011;513;51.444;7.196;2023-07-31T07:43:07;10.43;;;5.47;;
1048;SDS011;513;51.444;7.196;2023-07-31T07:45:36;9.73;;;5.75;;
1048;SDS011;513;51.444;7.196;2023-07-31T07:48:03;10.63;;;5.80;;
1048;SDS011;513;51.444;7.196;2023-07-31T07:50:30;9.85;;;5.57;;
1048;SDS011;513;51.444;7.196;2023-07-31T07:52:57;9.70;;;5.65;;
1048;SDS011;513;51.444;7.196;2023-07-31T07:55:24;11.20;;;5.53;;
1048;SDS011;513;51.444;7.196;2023-07-31T07:57:51;9.63;;;5.30;;
1048;SDS011;513;51.444;7.196;2023-07-31T08:00:18;11.63;;;5.68;;
1048;SDS011;513;51.444;7.196;2023-07-31T08:02:46;8.20;;;5.45;;
1048;SDS011;513;51.444;7.196;2023-07-31T08:05:13;10.88;;;5.47;;
1048;SDS011;513;51.444;7.196;2023-07-31T08:07:42;10.57;;;4.97;;
1048;SDS011;513;51.444;7.196;2023-07-31T08:10:09;20.77;;;6.00;;
1048;SDS011;513;51.444;7.196;2023-07-31T08:12:36;9.02;;;4.88;;
1048;SDS011;513;51.444;7.196;2023-07-31T08:15:04;8.05;;;4.70;;
1048;SDS011;513;51.444;7.196;2023-07-31T08:17:31;7.32;;;4.75;;
1048;SDS011;513;51.444;7.196;2023-07-31T08:19:59;10.57;;;5.18;;
1048;SDS011;513;51.444;7.196;2023-07-31T08:22:26;9.90;;;5.50;;
1048;SDS011;513;51.444;7.196;2023-07-31T08:24:53;8.60;;;4.82;;
1048;SDS011;513;51.444;7.196;2023-07-31T08:27:20;9.00;;;4.75;;
1048;SDS011;513;51.444;7.196;2023-07-31T08:29:47;6.20;;;4.20;;
1048;SDS011;513;51.444;7.196;2023-07-31T08:32:14;7.25;;;4.30;;
1048;SDS011;513;51.444;7.196;2023-07-31T08:34:41;6.05;;;3.60;;
1048;SDS011;513;51.444;7.196;2023-07-31T08:37:10;7.47;;;3.90;;
1048;SDS011;513;51.444;7.196;2023-07-31T08:39:37;7.20;;;3.78;;
1048;SDS011;513;51.444;7.196;2023-07-31T08:42:07;5.63;;;3.67;;
1048;SDS011;513;51.444;7.196;2023-07-31T08:44:34;5.28;;;3.60;;
1048;SDS011;513;51.444;7.196;2023-07-31T08:47:01;6.60;;;3.90;;
1048;SDS011;513;51.444;7.196;2023-07-31T08:49:28;5.83;;;3.60;;
1048;SDS011;513;51.444;7.196;2023-07-31T08:51:56;6.15;;;4.05;;
1048;SDS011;513;51.444;7.196;2023-07-31T08:54:24;5.13;;;3.75;;
1048;SDS011;513;51.444;7.196;2023-07-31T08:56:55;6.03;;;3.50;;
1048;SDS011;513;51.444;7.196;2023-07-31T08:59:24;5.75;;;3.70;;
1048;SDS011;513;51.444;7.196;2023-07-31T09:01:55;5.97;;;4.18;;
1048;SDS011;513;51.444;7.196;2023-07-31T09:04:22;7.75;;;4.20;;
1048;SDS011;513;51.444;7.196;2023-07-31T09:06:49;5.18;;;4.40;;
1048;SDS011;513;51.444;7.196;2023-07-31T09:09:17;5.87;;;4.53;;
1048;SDS011;513;51.444;7.196;2023-07-31T09:11:46;7.40;;;4.22;;
1048;SDS011;513;51.444;7.196;2023-07-31T09:14:14;7.57;;;4.45;;
1048;SDS011;513;51.444;7.196;2023-07-31T09:16:51;6.90;;;4.60;;
1048;SDS011;513;51.444;7.196;2023-07-31T09:19:24;6.20;;;3.83;;
1048;SDS011;513;51.444;7.196;2023-07-31T09:21:52;5.57;;;3.90;;
1048;SDS011;513;51.444;7.196;2023-07-31T09:24:24;6.90;;;4.22;;
1048;SDS011;513;51.444;7.196;2023-07-31T09:26:54;7.40;;;4.47;;
1048;SDS011;513;51.444;7.196;2023-07-31T09:29:22;6.20;;;3.92;;
1048;SDS011;513;51.444;7.196;2023-07-31T09:31:50;6.72;;;4.28;;
1048;SDS011;513;51.444;7.196;2023-07-31T09:34:17;4.88;;;3.55;;
1048;SDS011;513;51.444;7.196;2023-07-31T09:36:44;5.30;;;3.70;;
1048;SDS011;513;51.444;7.196;2023-07-31T09:39:12;5.43;;;3.88;;
1048;SDS011;513;51.444;7.196;2023-07-31T09:41:41;5.32;;;3.38;;
1048;SDS011;513;51.444;7.196;2023-07-31T09:44:10;4.75;;;3.40;;
1048;SDS011;513;51.444;7.196;2023-07-31T09:46:37;5.43;;;3.30;;
1048;SDS011;513;51.444;7.196;2023-07-31T09:49:05;4.95;;;3.40;;
1048;SDS011;513;51.444;7.196;2023-07-31T09:51:34;6.75;;;3.20;;
1048;SDS011;513;51.444;7.196;2023-07-31T09:54:03;3.75;;;2.92;;
1048;SDS011;513;51.444;7.196;2023-07-31T09:56:31;5.03;;;3.50;;
1048;SDS011;513;51.444;7.196;2023-07-31T09:58:59;4.80;;;3.30;;
1048;SDS011;513;51.444;7.196;2023-07-31T10:01:27;4.85;;;3.40;;
1048;SDS011;513;51.444;7.196;2023-07-31T10:03:54;4.82;;;3.17;;
1048;SDS011;513;51.444;7.196;2023-07-31T10:06:21;4.10;;;3.20;;
1048;SDS011;513;51.444;7.196;2023-07-31T10:08:48;3.95;;;2.90;;
1048;SDS011;513;51.444;7.196;2023-07-31T10:11:16;4.30;;;3.38;;
1048;SDS011;513;51.444;7.196;2023-07-31T10:13:43;5.07;;;3.42;;
1048;SDS011;513;51.444;7.196;2023-07-31T10:16:11;9.53;;;4.77;;
1048;SDS011;513;51.444;7.196;2023-07-31T10:18:40;4.95;;;3.05;;
1048;SDS011;513;51.444;7.196;2023-07-31T10:21:08;3.78;;;2.90;;
1048;SDS011;513;51.444;7.196;2023-07-31T10:23:36;4.18;;;2.80;;
1048;SDS011;513;51.444;7.196;2023-07-31T10:26:04;4.18;;;2.70;;
1048;SDS011;513;51.444;7.196;2023-07-31T10:28:32;3.40;;;2.70;;
1048;SDS011;513;51.444;7.196;2023-07-31T10:30:59;3.30;;;2.70;;
1048;SDS011;513;51.444;7.196;2023-07-31T10:33:27;3.60;;;2.58;;
1048;SDS011;513;51.444;7.196;2023-07-31T10:38:37;2.67;;;2.27;;
1048;SDS011;513;51.444;7.196;2023-07-31T10:41:07;4.05;;;2.30;;
1048;SDS011;513;51.444;7.196;2023-07-31T10:43:34;3.95;;;2.45;;
1048;SDS011;513;51.444;7.196;2023-07-31T10:46:06;5.22;;;3.00;;
1048;SDS011;513;51.444;7.196;2023-07-31T10:48:33;3.92;;;2.83;;
1048;SDS011;513;51.444;7.196;2023-07-31T10:51:01;3.70;;;2.90;;
1048;SDS011;513;51.444;7.196;2023-07-31T10:53:33;5.95;;;3.10;;
1048;SDS011;513;51.444;7.196;2023-07-31T10:56:02;5.75;;;3.40;;
1048;SDS011;513;51.444;7.196;2023-07-31T10:58:29;4.47;;;3.20;;
1048;SDS011;513;51.444;7.196;2023-07-31T11:00:58;6.07;;;3.60;;
1048;SDS011;513;51.444;7.196;2023-07-31T11:03:25;7.03;;;3.75;;
1048;SDS011;513;51.444;7.196;2023-07-31T11:05:54;7.85;;;4.18;;
1048;SDS011;513;51.444;7.196;2023-07-31T11:08:28;6.60;;;4.17;;
1048;SDS011;513;51.444;7.196;2023-07-31T11:11:06;6.07;;;4.22;;
1048;SDS011;513;51.444;7.196;2023-07-31T11:13:34;6.32;;;3.60;;
1048;SDS011;513;51.444;7.196;2023-07-31T11:16:01;5.30;;;3.90;;
1048;SDS011;513;51.444;7.196;2023-07-31T11:18:28;8.23;;;4.60;;
1048;SDS011;513;51.444;7.196;2023-07-31T11:20:55;6.50;;;3.90;;
1048;SDS011;513;51.444;7.196;2023-07-31T11:23:22;6.85;;;3.95;;
1048;SDS011;513;51.444;7.196;2023-07-31T11:25:49;6.18;;;3.92;;
1048;SDS011;513;51.444;7.196;2023-07-31T11:28:19;6.78;;;3.92;;
1048;SDS011;513;51.444;7.196;2023-07-31T11:30:46;6.40;;;3.50;;
1048;SDS011;513;51.444;7.196;2023-07-31T11:33:14;8.90;;;3.95;;
1048;SDS011;513;51.444;7.196;2023-07-31T11:35:41;6.78;;;3.83;;
1048;SDS011;513;51.444;7.196;2023-07-31T11:38:09;5.90;;;3.95;;
1048;SDS011;513;51.444;7.196;2023-07-31T11:40:40;6.05;;;3.95;;
1048;SDS011;513;51.444;7.196;2023-07-31T11:43:08;6.35;;;4.00;;
1048;SDS011;513;51.444;7.196;2023-07-31T11:45:37;5.83;;;3.87;;
1048;SDS011;513;51.444;7.196;2023-07-31T11:48:05;6.93;;;3.85;;
1048;SDS011;513;51.444;7.196;2023-07-31T11:50:33;6.70;;;3.92;;
1048;SDS011;513;51.444;7.196;2023-07-31T11:53:00;6.67;;;3.53;;
1048;SDS011;513;51.444;7.196;2023-07-31T11:55:29;6.93;;;4.03;;
1048;SDS011;513;51.444;7.196;2023-07-31T11:57:57;7.10;;;3.53;;
1048;SDS011;513;51.444;7.196;2023-07-31T12:00:24;6.47;;;3.47;;
1048;SDS011;513;51.444;7.196;2023-07-31T12:02:52;5.38;;;3.50;;
1048;SDS011;513;51.444;7.196;2023-07-31T12:05:19;4.43;;;3.17;;
1048;SDS011;513;51.444;7.196;2023-07-31T12:07:49;5.40;;;3.00;;
1048;SDS011;513;51.444;7.196;2023-07-31T12:10:25;6.45;;;2.80;;
1048;SDS011;513;51.444;7.196;2023-07-31T12:13:02;5.57;;;3.00;;
1048;SDS011;513;51.444;7.196;2023-07-31T12:15:32;4.85;;;2.88;;
1048;SDS011;513;51.444;7.196;2023-07-31T12:18:00;4.60;;;2.42;;
1048;SDS011;513;51.444;7.196;2023-07-31T12:20:27;4.65;;;2.78;;
1048;SDS011;513;51.444;7.196;2023-07-31T12:22:56;3.55;;;2.47;;
1048;SDS011;513;51.444;7.196;2023-07-31T12:25:28;4.30;;;2.88;;
1048;SDS011;513;51.444;7.196;2023-07-31T12:27:55;5.18;;;2.55;;
1048;SDS011;513;51.444;7.196;2023-07-31T12:30:28;5.15;;;2.85;;
1048;SDS011;513;51.444;7.196;2023-07-31T12:32:55;4.05;;;2.50;;
1048;SDS011;513;51.444;7.196;2023-07-31T12:35:24;3.22;;;2.38;;
1048;SDS011;513;51.444;7.196;2023-07-31T12:37:51;3.72;;;2.40;;
1048;SDS011;513;51.444;7.196;2023-07-31T12:40:18;6.40;;;3.22;;
1048;SDS011;513;51.444;7.196;2023-07-31T12:42:45;4.10;;;2.45;;
1048;SDS011;513;51.444;7.196;2023-07-31T12:45:12;3.30;;;2.70;;
1048;SDS011;513;51.444;7.196;2023-07-31T12:47:39;4.15;;;2.70;;
1048;SDS011;513;51.444;7.196;2023-07-31T12:50:06;5.15;;;2.95;;
1048;SDS011;513;51.444;7.196;2023-07-31T12:52:35;5.25;;;3.20;;
1048;SDS011;513;51.444;7.196;2023-07-31T12:55:02;4.18;;;2.65;;
1048;SDS011;513;51.444;7.196;2023-07-31T12:57:29;4.60;;;2.50;;
1048;SDS011;513;51.444;7.196;2023-07-31T12:59:56;3.58;;;2.70;;
1048;SDS011;513;51.444;7.196;2023-07-31T13:02:23;3.43;;;2.53;;
1048;SDS011;513;51.444;7.196;2023-07-31T13:04:50;5.07;;;2.40;;
1048;SDS011;513;51.444;7.196;2023-07-31T13:07:18;4.25;;;2.47;;
1048;SDS011;513;51.444;7.196;2023-07-31T13:09:46;3.58;;;2.30;;
1048;SDS011;513;51.444;7.196;2023-07-31T13:12:13;6.63;;;2.40;;
1048;SDS011;513;51.444;7.196;2023-07-31T13:14:40;2.85;;;1.90;;
1048;SDS011;513;51.444;7.196;2023-07-31T13:17:07;4.45;;;2.00;;
1048;SDS011;513;51.444;7.196;2023-07-31T13:19:34;3.77;;;1.90;;
1048;SDS011;513;51.444;7.196;2023-07-31T13:22:01;2.78;;;2.10;;
1048;SDS011;513;51.444;7.196;2023-07-31T13:24:29;3.45;;;2.38;;
1048;SDS011;513;51.444;7.196;2023-07-31T13:26:57;3.08;;;2.30;;
1048;SDS011;513;51.444;7.196;2023-07-31T13:29:25;3.10;;;2.23;;
1048;SDS011;513;51.444;7.196;2023-07-31T13:31:52;3.38;;;2.40;;
1048;SDS011;513;51.444;7.196;2023-07-31T13:34:19;3.15;;;2.50;;
1048;SDS011;513;51.444;7.196;2023-07-31T13:36:46;3.17;;;2.58;;
1048;SDS011;513;51.444;7.196;2023-07-31T13:39:13;3.70;;;2.90;;
1048;SDS011;513;51.444;7.196;2023-07-31T13:41:40;4.03;;;2.67;;
1048;SDS011;513;51.444;7.196;2023-07-31T13:44:08;3.78;;;2.50;;
1048;SDS011;513;51.444;7.196;2023-07-31T13:46:35;4.72;;;2.80;;
1048;SDS011;513;51.444;7.196;2023-07-31T13:49:02;3.42;;;2.65;;
1048;SDS011;513;51.444;7.196;2023-07-31T13:51:29;5.68;;;2.75;;
1048;SDS011;513;51.444;7.196;2023-07-31T13:53:56;4.97;;;2.85;;
1048;SDS011;513;51.444;7.196;2023-07-31T13:56:23;3.80;;;2.65;;
1048;SDS011;513;51.444;7.196;2023-07-31T13:58:50;3.92;;;2.85;;
1048;SDS011;513;51.444;7.196;2023-07-31T14:01:19;5.33;;;3.10;;
1048;SDS011;513;51.444;7.196;2023-07-31T14:03:46;6.28;;;2.80;;
1048;SDS011;513;51.444;7.196;2023-07-31T14:06:13;4.30;;;3.20;;
1048;SDS011;513;51.444;7.196;2023-07-31T14:08:40;4.13;;;3.20;;
1048;SDS011;513;51.444;7.196;2023-07-31T14:11:07;5.50;;;3.20;;
1048;SDS011;513;51.444;7.196;2023-07-31T14:13:34;4.72;;;3.03;;
1048;SDS011;513;51.444;7.196;2023-07-31T14:16:01;5.25;;;3.25;;
1048;SDS011;513;51.444;7.196;2023-07-31T14:18:29;5.40;;;3.38;;
1048;SDS011;513;51.444;7.196;2023-07-31T14:20:56;5.45;;;3.47;;
1048;SDS011;513;51.444;7.196;2023-07-31T14:23:23;6.38;;;3.55;;
1048;SDS011;513;51.444;7.196;2023-07-31T14:25:50;5.47;;;3.20;;
1048;SDS011;513;51.444;7.196;2023-07-31T14:28:17;7.57;;;3.67;;
1048;SDS011;513;51.444;7.196;2023-07-31T14:30:44;6.35;;;3.20;;
1048;SDS011;513;51.444;7.196;2023-07-31T14:33:12;4.95;;;3.20;;
1048;SDS011;513;51.444;7.196;2023-07-31T14:35:40;6.50;;;3.28;;
1048;SDS011;513;51.444;7.196;2023-07-31T14:38:07;6.50;;;3.45;;
1048;SDS011;513;51.444;7.196;2023-07-31T14:40:34;5.50;;;3.22;;
1048;SDS011;513;51.444;7.196;2023-07-31T14:43:01;6.95;;;3.10;;
1048;SDS011;513;51.444;7.196;2023-07-31T14:45:28;5.63;;;3.08;;
1048;SDS011;513;51.444;7.196;2023-07-31T14:47:55;5.88;;;3.08;;
1048;SDS011;513;51.444;7.196;2023-07-31T14:50:22;5.85;;;3.08;;
1048;SDS011;513;51.444;7.196;2023-07-31T14:52:50;5.28;;;3.28;;
1048;SDS011;513;51.444;7.196;2023-07-31T14:55:18;6.28;;;3.38;;
1048;SDS011;513;51.444;7.196;2023-07-31T14:57:45;5.60;;;3.17;;
1048;SDS011;513;51.444;7.196;2023-07-31T15:00:12;5.85;;;3.30;;
1048;SDS011;513;51.444;7.196;2023-07-31T15:02:39;8.05;;;3.75;;
1048;SDS011;513;51.444;7.196;2023-07-31T15:05:07;5.03;;;3.50;;
1048;SDS011;513;51.444;7.196;2023-07-31T15:07:34;6.30;;;3.42;;
1048;SDS011;513;51.444;7.196;2023-07-31T15:10:03;6.50;;;3.50;;
1048;SDS011;513;51.444;7.196;2023-07-31T15:12:30;6.35;;;3.53;;
1048;SDS011;513;51.444;7.196;2023-07-31T15:14:57;5.70;;;3.50;;
1048;SDS011;513;51.444;7.196;2023-07-31T15:17:24;5.97;;;3.58;;
1048;SDS011;513;51.444;7.196;2023-07-31T15:19:51;5.40;;;3.50;;
1048;SDS011;513;51.444;7.196;2023-07-31T15:22:18;5.18;;;3.58;;
1048;SDS011;513;51.444;7.196;2023-07-31T15:24:45;5.75;;;3.58;;
1048;SDS011;513;51.444;7.196;2023-07-31T15:27:15;5.78;;;3.80;;